createdAt,value
2018-07-27T00:00:41.038Z,20.89
2018-07-27T00:03:16.365Z,20.97
2018-07-27T00:05:49.395Z,21.16
2018-07-27T00:08:22.431Z,21.26
2018-07-27T00:10:57.751Z,21.56
2018-07-27T00:13:35.158Z,21.03
2018-07-27T00:16:08.051Z,21.20
2018-07-27T00:18:40.364Z,20.96
2018-07-27T00:21:15.866Z,21.44
2018-07-27T00:23:50.298Z,21.39
2018-07-27T00:26:24.158Z,21.27
2018-07-27T00:28:58.857Z,21.84
2018-07-27T00:31:33.325Z,21.21
2018-07-27T00:34:06.728Z,21.19
2018-07-27T00:36:38.850Z,21.82
2018-07-27T00:39:11.829Z,21.84
2018-07-27T00:41:44.644Z,21.29
2018-07-27T00:44:17.756Z,22.08
2018-07-27T00:46:51.188Z,21.46
2018-07-27T00:49:25.126Z,21.75
2018-07-27T00:51:58.291Z,21.92
2018-07-27T00:54:33.590Z,21.98
2018-07-27T00:57:07.535Z,22.29
2018-07-27T00:59:40.081Z,21.49
2018-07-27T01:02:14.929Z,21.66
2018-07-27T01:04:49.854Z,22.00
2018-07-27T01:07:22.772Z,22.15
2018-07-27T01:09:55.566Z,22.52
2018-07-27T01:12:28.900Z,22.15
2018-07-27T01:15:01.485Z,22.53
2018-07-27T01:17:37.847Z,21.72
2018-07-27T01:20:10.080Z,22.39
2018-07-27T01:22:41.668Z,22.23
2018-07-27T01:25:13.224Z,21.81
2018-07-27T01:27:46.326Z,22.09
2018-07-27T01:30:19.101Z,22.12
2018-07-27T01:32:51.270Z,22.19
2018-07-27T01:35:25.536Z,22.81
2018-07-27T01:38:00.091Z,22.18
2018-07-27T01:40:32.409Z,22.10
2018-07-27T01:43:05.425Z,21.91
2018-07-27T01:45:37.830Z,22.93
2018-07-27T01:48:11.250Z,22.47
2018-07-27T01:50:43.063Z,22.87
2018-07-27T01:53:14.584Z,22.43
2018-07-27T01:55:46.189Z,22.74
2018-07-27T01:58:18.639Z,22.60
2018-07-27T02:00:50.179Z,22.90
2018-07-27T02:03:22.304Z,22.70
2018-07-27T02:05:59.746Z,22.58
2018-07-27T02:08:32.288Z,23.46
2018-07-27T02:11:03.820Z,23.03
2018-07-27T02:13:35.862Z,22.84
2018-07-27T02:16:08.422Z,23.59
2018-07-27T02:18:43.586Z,23.12
2018-07-27T02:21:18.285Z,23.50
2018-07-27T02:23:54.268Z,23.47
2018-07-27T02:26:28.140Z,23.53
2018-07-27T02:29:00.364Z,24.13
2018-07-27T02:31:33.695Z,23.92
2018-07-27T02:34:06.503Z,23.41
2018-07-27T02:36:38.886Z,23.49
2018-07-27T02:39:12.594Z,24.18
2018-07-27T02:41:45.855Z,24.02
2018-07-27T02:44:17.677Z,24.18
2018-07-27T02:46:49.758Z,24.35
2018-07-27T02:49:23.116Z,23.94
2018-07-27T02:51:54.632Z,24.43
2018-07-27T02:54:27.038Z,24.11
2018-07-27T02:57:00.057Z,24.37
2018-07-27T02:59:33.288Z,25.02
2018-07-27T03:02:04.718Z,24.08
2018-07-27T03:04:36.177Z,24.84
2018-07-27T03:07:08.621Z,24.74
2018-07-27T03:09:40.958Z,24.27
2018-07-27T03:12:13.348Z,24.87
2018-07-27T03:14:44.882Z,24.37
2018-07-27T03:17:16.447Z,25.40
2018-07-27T03:19:48.302Z,25.32
2018-07-27T03:22:20.577Z,25.25
2018-07-27T03:24:53.103Z,25.45
2018-07-27T03:27:24.589Z,24.73
2018-07-27T03:29:56.159Z,25.10
2018-07-27T03:32:27.715Z,25.70
2018-07-27T03:35:00.276Z,25.49
2018-07-27T03:37:33.103Z,25.24
2018-07-27T03:40:06.775Z,25.52
2018-07-27T03:42:38.245Z,25.57
2018-07-27T03:45:10.452Z,25.70
2018-07-27T03:47:42.134Z,26.27
2018-07-27T03:50:13.649Z,25.42
2018-07-27T03:52:45.290Z,25.54
2018-07-27T03:55:16.892Z,25.54
2018-07-27T03:57:48.443Z,26.05
2018-07-27T04:00:20.735Z,25.58
2018-07-27T04:02:51.499Z,25.47
2018-07-27T04:05:23.054Z,26.37
2018-07-27T04:07:54.623Z,25.85
2018-07-27T04:10:26.493Z,25.55
2018-07-27T04:12:58.599Z,26.52
2018-07-27T04:15:32.249Z,25.72
2018-07-27T04:18:04.724Z,25.59
2018-07-27T04:20:36.324Z,25.92
2018-07-27T04:23:07.907Z,25.18
2018-07-27T04:25:40.600Z,24.92
2018-07-27T04:28:12.423Z,24.45
2018-07-27T04:30:44.776Z,25.02
2018-07-27T04:33:16.477Z,24.02
2018-07-27T04:35:47.971Z,24.59
2018-07-27T04:38:20.042Z,24.17
2018-07-27T04:40:51.856Z,23.76
2018-07-27T04:43:24.388Z,24.19
2018-07-27T04:45:56.881Z,23.06
2018-07-27T04:48:28.378Z,23.36
2018-07-27T04:51:01.492Z,22.73
2018-07-27T04:53:33.132Z,22.79
2018-07-27T04:56:06.158Z,22.34
2018-07-27T04:58:37.638Z,22.89
2018-07-27T05:01:09.772Z,22.98
2018-07-27T05:03:43.018Z,21.99
2018-07-27T05:06:15.540Z,22.00
2018-07-27T05:08:52.241Z,21.23
2018-07-27T05:11:28.481Z,20.75
2018-07-27T05:13:59.997Z,21.13
2018-07-27T05:16:31.548Z,19.94
2018-07-27T05:19:03.079Z,20.09
2018-07-27T05:21:34.681Z,19.91
2018-07-27T05:24:06.261Z,20.15
2018-07-27T05:26:38.597Z,19.77
2018-07-27T05:29:10.141Z,19.11
2018-07-27T05:31:41.728Z,19.29
2018-07-27T05:34:14.185Z,18.77
2018-07-27T05:36:45.762Z,19.05
2018-07-27T05:39:18.512Z,18.80
2018-07-27T05:41:50.958Z,18.52
2018-07-27T05:44:23.113Z,18.35
2018-07-27T05:46:55.363Z,17.83
2018-07-27T05:49:28.241Z,17.23
2018-07-27T05:52:01.609Z,18.01
2018-07-27T05:54:33.223Z,17.91
2018-07-27T05:57:05.111Z,17.89
2018-07-27T05:59:36.668Z,18.04
2018-07-27T06:02:10.437Z,17.43
2018-07-27T06:04:41.669Z,18.00
2018-07-27T06:07:13.719Z,17.81
2018-07-27T06:10:06.032Z,18.52
2018-07-27T06:12:50.338Z,18.66
2018-07-27T06:15:24.821Z,18.43
2018-07-27T06:17:56.714Z,18.48
2018-07-27T06:20:30.151Z,18.33
2018-07-27T06:23:03.324Z,18.03
2018-07-27T06:25:35.027Z,18.36
2018-07-27T06:28:07.759Z,17.99
2018-07-27T06:30:40.749Z,17.36
2018-07-27T06:33:13.848Z,16.92
2018-07-27T06:35:49.669Z,17.50
2018-07-27T06:38:24.806Z,17.60
2018-07-27T06:40:57.059Z,16.92
2018-07-27T06:43:31.023Z,16.41
2018-07-27T06:46:03.405Z,17.19
2018-07-27T06:48:35.292Z,16.80
2018-07-27T06:51:09.317Z,17.23
2018-07-27T06:53:41.527Z,17.02
2018-07-27T06:56:14.355Z,16.25
2018-07-27T06:58:46.219Z,16.25
2018-07-27T07:01:19.976Z,16.53
2018-07-27T07:03:52.368Z,16.25
2018-07-27T07:06:29.039Z,15.96
2018-07-27T07:09:04.135Z,16.76
2018-07-27T07:11:36.065Z,15.92
2018-07-27T07:14:10.875Z,15.93
2018-07-27T07:16:43.167Z,15.81
2018-07-27T07:19:17.713Z,16.64
2018-07-27T07:21:50.872Z,16.40
2018-07-27T07:24:23.902Z,16.19
2018-07-27T07:26:57.843Z,16.03
2018-07-27T07:29:34.948Z,16.36
2018-07-27T07:32:09.814Z,16.15
2018-07-27T07:34:42.307Z,15.77
2018-07-27T07:37:16.190Z,16.67
2018-07-27T07:39:50.095Z,15.79
2018-07-27T07:42:21.791Z,15.98
2018-07-27T07:44:54.824Z,15.73
2018-07-27T07:47:34.497Z,16.36
2018-07-27T07:50:09.196Z,15.75
2018-07-27T07:52:41.499Z,16.66
2018-07-27T07:55:13.751Z,16.18
2018-07-27T07:57:46.005Z,16.23
2018-07-27T08:00:22.358Z,15.59
2018-07-27T08:02:56.340Z,16.08
2018-07-27T08:05:29.926Z,15.27
2018-07-27T08:08:06.105Z,15.34
2018-07-27T08:10:43.566Z,16.18
2018-07-27T08:13:19.030Z,16.29
2018-07-27T08:15:53.952Z,16.48
2018-07-27T08:18:27.733Z,16.36
2018-07-27T08:21:02.594Z,16.45
2018-07-27T08:23:36.314Z,16.44
2018-07-27T08:26:49.313Z,15.84
2018-07-27T08:29:25.739Z,15.49
2018-07-27T08:32:02.025Z,15.60
2018-07-27T08:34:34.531Z,15.62
2018-07-27T08:37:07.695Z,15.62
2018-07-27T08:39:42.058Z,16.04
2018-07-27T08:42:15.184Z,16.67
2018-07-27T08:44:49.728Z,15.87
2018-07-27T08:47:22.500Z,16.51
2018-07-27T08:49:57.897Z,16.80
2018-07-27T08:52:33.011Z,15.89
2018-07-27T08:55:08.697Z,15.43
2018-07-27T08:57:42.656Z,16.34
2018-07-27T09:00:29.484Z,16.69
2018-07-27T09:03:05.901Z,16.22
2018-07-27T09:05:40.153Z,16.84
2018-07-27T09:08:14.454Z,16.93
2018-07-27T09:10:47.686Z,16.91
2018-07-27T09:13:18.910Z,16.36
2018-07-27T09:15:57.621Z,16.77
2018-07-27T09:18:32.433Z,17.11
2018-07-27T09:21:07.666Z,16.89
2018-07-27T09:23:42.149Z,17.03
2018-07-27T09:26:18.268Z,16.76
2018-07-27T09:28:54.138Z,16.71
2018-07-27T09:31:32.432Z,16.77
2018-07-27T09:34:09.343Z,16.64
2018-07-27T09:36:47.015Z,16.01
2018-07-27T09:39:22.057Z,16.22
2018-07-27T09:41:56.520Z,16.09
2018-07-27T09:44:29.465Z,16.37
2018-07-27T09:47:03.296Z,15.53
2018-07-27T09:49:41.684Z,16.28
2018-07-27T09:52:28.057Z,15.96
2018-07-27T09:55:06.026Z,16.43
2018-07-27T09:57:43.621Z,15.52
2018-07-27T10:00:54.826Z,15.95
2018-07-27T10:03:32.016Z,15.75
2018-07-27T10:06:06.042Z,15.95
2018-07-27T10:08:44.242Z,16.05
2018-07-27T10:11:19.268Z,16.23
2018-07-27T10:13:54.946Z,15.28
2018-07-27T10:16:28.725Z,15.89
2018-07-27T10:19:07.718Z,15.43
2018-07-27T10:21:42.425Z,15.58
2018-07-27T10:24:18.924Z,15.97
2018-07-27T10:26:51.634Z,15.99
2018-07-27T10:29:24.603Z,14.24
2018-07-27T10:32:10.076Z,15.13
2018-07-27T10:34:52.446Z,14.61
2018-07-27T10:37:26.195Z,15.07
2018-07-27T10:40:07.210Z,14.80
2018-07-27T10:42:41.333Z,14.46
2018-07-27T10:45:36.051Z,14.75
2018-07-27T10:48:13.436Z,14.50
2018-07-27T10:50:50.673Z,14.52
2018-07-27T10:53:25.838Z,13.98
2018-07-27T10:55:59.986Z,13.47
2018-07-27T10:58:37.428Z,13.36
2018-07-27T11:01:20.944Z,13.87
2018-07-27T11:03:54.015Z,13.53
2018-07-27T11:06:28.439Z,14.41
2018-07-27T11:09:02.272Z,14.38
2018-07-27T11:11:35.487Z,14.27
2018-07-27T11:14:11.108Z,13.76
2018-07-27T11:16:43.891Z,12.90
2018-07-27T11:19:17.734Z,12.65
2018-07-27T11:21:53.113Z,12.31
2018-07-27T11:24:30.928Z,12.59
2018-07-27T11:27:05.458Z,12.44
2018-07-27T11:29:38.694Z,13.45
2018-07-27T11:32:15.732Z,13.38
2018-07-27T11:34:49.719Z,13.01
2018-07-27T11:37:23.911Z,12.55
2018-07-27T11:40:08.009Z,13.01
2018-07-27T11:42:42.344Z,13.22
2018-07-27T11:45:41.873Z,12.62
2018-07-27T11:48:21.043Z,13.26
2018-07-27T11:50:56.161Z,13.11
2018-07-27T11:53:34.956Z,12.82
2018-07-27T11:56:13.560Z,12.50
2018-07-27T11:58:52.138Z,12.31
2018-07-27T12:01:25.266Z,12.78
2018-07-27T12:03:58.534Z,12.05
2018-07-27T12:06:36.456Z,12.06
2018-07-27T12:09:16.396Z,12.06
2018-07-27T12:11:50.295Z,11.87
2018-07-27T12:14:24.628Z,12.05
2018-07-27T12:17:00.088Z,12.24
2018-07-27T12:19:33.069Z,11.60
2018-07-27T12:22:06.680Z,11.27
2018-07-27T12:24:40.793Z,12.01
2018-07-27T12:27:11.952Z,12.37
2018-07-27T12:29:43.355Z,11.77
2018-07-27T12:32:20.299Z,12.34
2018-07-27T12:34:55.432Z,11.40
2018-07-27T12:37:28.377Z,11.86
2018-07-27T12:40:02.688Z,10.94
2018-07-27T12:42:37.335Z,11.56
2018-07-27T12:45:18.598Z,11.39
2018-07-27T12:47:52.080Z,10.81
2018-07-27T12:50:25.741Z,11.07
2018-07-27T12:52:58.860Z,10.52
2018-07-27T12:55:33.510Z,10.61
2018-07-27T12:58:07.980Z,11.75
2018-07-27T13:00:45.383Z,11.45
2018-07-27T13:03:22.350Z,11.36
2018-07-27T13:05:55.290Z,11.78
2018-07-27T13:08:27.124Z,11.82
2018-07-27T13:10:58.885Z,12.20
2018-07-27T13:13:33.851Z,11.69
2018-07-27T13:16:07.498Z,11.50
2018-07-27T13:18:40.739Z,11.84
2018-07-27T13:21:15.233Z,11.27
2018-07-27T13:24:00.242Z,11.65
2018-07-27T13:26:38.645Z,11.49
2018-07-27T13:29:11.488Z,11.60
2018-07-27T13:31:52.444Z,11.72
2018-07-27T13:34:43.240Z,12.01
2018-07-27T13:37:19.570Z,11.62
2018-07-27T13:39:52.507Z,11.52
2018-07-27T13:42:26.553Z,12.40
2018-07-27T13:45:00.615Z,12.34
2018-07-27T13:47:36.441Z,12.29
2018-07-27T13:50:09.001Z,12.42
2018-07-27T13:52:47.423Z,11.12
2018-07-27T13:55:21.584Z,11.10
2018-07-27T13:57:55.452Z,11.20
2018-07-27T14:03:31.758Z,10.36
2018-07-27T14:06:11.671Z,10.94
2018-07-27T14:08:46.692Z,10.55
2018-07-27T14:11:21.236Z,9.69
2018-07-27T14:13:54.424Z,9.84
2018-07-27T14:16:28.452Z,9.95
2018-07-27T14:19:03.894Z,10.10
2018-07-27T14:21:37.981Z,9.53
2018-07-27T14:24:10.498Z,9.83
2018-07-27T14:26:44.925Z,9.81
2018-07-27T14:29:17.009Z,9.99
2018-07-27T14:31:51.524Z,10.40
2018-07-27T14:34:25.987Z,10.21
2018-07-27T14:37:00.670Z,10.27
2018-07-27T14:39:34.255Z,9.73
2018-07-27T14:42:10.752Z,9.47
2018-07-27T14:44:44.750Z,9.73
2018-07-27T14:47:17.652Z,9.94
2018-07-27T14:49:55.329Z,9.67
2018-07-27T14:52:34.259Z,10.14
2018-07-27T14:55:10.119Z,9.26
2018-07-27T14:57:44.765Z,9.53
2018-07-27T15:00:37.055Z,9.78
2018-07-27T15:04:17.430Z,8.64
2018-07-27T15:06:50.325Z,9.45
2018-07-27T15:09:31.294Z,9.93
2018-07-27T15:12:11.393Z,9.96
2018-07-27T15:14:47.929Z,9.85
2018-07-27T15:17:23.292Z,10.10
2018-07-27T15:20:00.471Z,9.84
2018-07-27T15:22:35.477Z,9.71
2018-07-27T15:25:08.045Z,10.40
2018-07-27T15:27:41.702Z,10.38
2018-07-27T15:30:45.016Z,9.94
2018-07-27T15:33:33.492Z,10.31
2018-07-27T15:36:13.436Z,10.39
2018-07-27T15:42:39.222Z,10.83
2018-07-27T15:45:10.832Z,10.41
2018-07-27T15:47:42.435Z,10.43
2018-07-27T15:50:21.388Z,10.32
2018-07-27T15:52:55.368Z,10.47
2018-07-27T15:55:28.106Z,10.57
2018-07-27T15:57:59.727Z,10.59
2018-07-27T16:00:32.975Z,11.87
2018-07-27T16:03:07.076Z,12.14
2018-07-27T16:08:05.096Z,12.60
2018-07-27T16:10:37.364Z,11.35
2018-07-27T16:13:10.772Z,11.45
2018-07-27T16:15:43.756Z,11.26
2018-07-27T16:18:16.845Z,11.12
2018-07-27T16:20:54.478Z,11.18
2018-07-27T16:23:27.642Z,11.65
2018-07-27T16:26:01.758Z,11.44
2018-07-27T16:28:33.381Z,10.41
2018-07-27T16:31:05.935Z,10.68
2018-07-27T16:33:37.596Z,10.32
2018-07-27T16:36:09.206Z,10.94
2018-07-27T16:38:42.543Z,9.84
2018-07-27T16:41:14.984Z,10.70
2018-07-27T16:43:47.376Z,10.02
2018-07-27T16:46:18.984Z,9.65
2018-07-27T16:48:51.993Z,8.91
2018-07-27T16:51:23.569Z,9.41
2018-07-27T16:53:55.927Z,9.13
2018-07-27T16:56:29.711Z,9.42
2018-07-27T17:01:33.859Z,10.19
2018-07-27T17:04:06.020Z,9.81
2018-07-27T17:06:37.612Z,10.07
2018-07-27T17:09:10.706Z,10.47
2018-07-27T17:11:42.448Z,10.72
2018-07-27T17:14:14.909Z,10.12
2018-07-27T17:16:48.120Z,10.17
2018-07-27T17:19:20.481Z,10.11
2018-07-27T17:21:56.595Z,10.89
2018-07-27T17:24:30.204Z,10.14
2018-07-27T17:27:03.707Z,10.98
2018-07-27T17:29:36.844Z,10.80
2018-07-27T17:32:09.083Z,10.76
2018-07-27T17:34:42.642Z,11.09
2018-07-27T17:37:15.414Z,10.92
2018-07-27T17:39:51.403Z,11.03
2018-07-27T17:42:23.474Z,11.16
2018-07-27T17:44:55.046Z,11.78
2018-07-27T17:47:26.651Z,11.42
2018-07-27T17:49:58.559Z,11.72
2018-07-27T17:52:31.293Z,11.33
2018-07-27T17:55:04.118Z,11.26
2018-07-27T17:57:36.884Z,12.53
2018-07-27T18:00:09.367Z,12.74
2018-07-27T18:02:43.497Z,12.27
2018-07-27T18:05:15.305Z,12.27
2018-07-27T18:07:51.914Z,12.91
2018-07-27T18:10:25.406Z,13.74
2018-07-27T18:12:57.831Z,13.73
2018-07-27T18:15:31.431Z,14.18
2018-07-27T18:18:03.462Z,14.15
2018-07-27T18:20:35.423Z,13.98
2018-07-27T18:23:09.430Z,14.18
2018-07-27T18:25:42.494Z,14.22
2018-07-27T18:28:15.580Z,14.17
2018-07-27T18:30:48.449Z,14.53
2018-07-27T18:33:20.840Z,15.03
2018-07-27T18:35:57.559Z,15.50
2018-07-27T18:38:29.683Z,15.57
2018-07-27T18:41:10.076Z,15.31
2018-07-27T18:43:43.321Z,15.75
2018-07-27T18:46:18.763Z,15.64
2018-07-27T18:48:50.629Z,15.60
2018-07-27T18:51:22.310Z,16.12
2018-07-27T18:53:53.952Z,16.40
2018-07-27T18:56:29.301Z,16.65
2018-07-27T18:59:02.587Z,17.71
2018-07-27T19:01:34.247Z,18.47
2018-07-27T19:04:07.272Z,17.91
2018-07-27T19:06:39.148Z,17.90
2018-07-27T19:09:14.661Z,18.53
2018-07-27T19:11:48.777Z,18.02
2018-07-27T19:14:20.849Z,19.22
2018-07-27T19:16:55.583Z,19.39
2018-07-27T19:19:29.420Z,19.80
2018-07-27T19:22:02.748Z,19.72
2018-07-27T19:24:35.692Z,19.75
2018-07-27T19:27:09.082Z,20.06
2018-07-27T19:29:42.445Z,19.49
2018-07-27T19:32:15.485Z,20.45
2018-07-27T19:34:47.707Z,19.82
2018-07-27T19:37:19.280Z,20.62
2018-07-27T19:39:50.944Z,19.74
2018-07-27T19:42:23.090Z,20.76
2018-07-27T19:44:55.502Z,20.57
2018-07-27T19:47:28.821Z,20.79
2018-07-27T19:50:00.551Z,20.33
2018-07-27T19:52:31.461Z,20.89
2018-07-27T19:55:03.413Z,20.46
2018-07-27T19:57:38.750Z,21.14
2018-07-27T20:00:12.569Z,21.51
2018-07-27T20:02:48.686Z,21.35
2018-07-27T20:05:21.515Z,21.48
2018-07-27T20:07:53.982Z,21.78
2018-07-27T20:10:26.535Z,22.10
2018-07-27T20:12:59.994Z,22.24
2018-07-27T20:15:33.192Z,22.40
2018-07-27T20:18:06.668Z,23.24
2018-07-27T20:20:41.272Z,22.85
2018-07-27T20:23:14.430Z,22.72
2018-07-27T20:25:45.130Z,23.32
2018-07-27T20:28:18.173Z,23.50
2018-07-27T20:30:50.721Z,22.93
2018-07-27T20:33:21.337Z,23.18
2018-07-27T20:35:56.453Z,24.07
2018-07-27T20:38:30.336Z,24.10
2018-07-27T20:41:01.092Z,24.48
2018-07-27T20:43:33.651Z,23.37
2018-07-27T20:46:06.010Z,23.58
2018-07-27T20:48:39.362Z,23.63
2018-07-27T20:51:13.321Z,24.25
2018-07-27T20:53:48.434Z,24.28
2018-07-27T20:56:20.114Z,24.67
2018-07-27T20:58:53.310Z,24.38
2018-07-27T21:01:25.929Z,23.86
2018-07-27T21:03:58.463Z,24.00
2018-07-27T21:06:32.958Z,24.65
2018-07-27T21:09:06.800Z,23.86
2018-07-27T21:11:39.418Z,24.25
2018-07-27T21:14:12.045Z,24.05
2018-07-27T21:16:45.459Z,24.87
2018-07-27T21:19:17.646Z,24.50
2018-07-27T21:21:51.222Z,24.36
2018-07-27T21:24:23.852Z,24.63
2018-07-27T21:26:54.869Z,24.41
2018-07-27T21:29:28.236Z,24.35
2018-07-27T21:32:00.476Z,25.49
2018-07-27T21:34:33.568Z,25.63
2018-07-27T21:37:04.493Z,25.14
2018-07-27T21:39:37.895Z,26.03
2018-07-27T21:42:11.097Z,25.17
2018-07-27T21:44:49.279Z,25.58
2018-07-27T21:47:55.706Z,26.25
2018-07-27T21:50:30.667Z,25.88
2018-07-27T21:53:03.183Z,26.47
2018-07-27T21:55:36.341Z,26.80
2018-07-27T21:58:11.155Z,26.25
2018-07-27T22:00:57.261Z,26.83
2018-07-27T22:03:31.343Z,26.39
2018-07-27T22:06:03.245Z,26.58
2018-07-27T22:08:42.098Z,26.73
2018-07-27T22:11:16.593Z,26.73
2018-07-27T22:13:49.194Z,27.85
2018-07-27T22:16:23.478Z,28.13
2018-07-27T22:18:54.240Z,28.02
2018-07-27T22:21:28.384Z,27.38
2018-07-27T22:24:03.475Z,27.64
2018-07-27T22:26:40.887Z,27.76
2018-07-27T22:29:15.134Z,28.14
2018-07-27T22:31:49.254Z,28.07
2018-07-27T22:36:57.313Z,27.88
2018-07-27T22:39:30.788Z,27.96
2018-07-27T22:42:19.893Z,28.08
2018-07-27T22:44:54.020Z,27.85
2018-07-27T22:47:31.333Z,27.69
2018-07-27T22:50:09.748Z,27.59
2018-07-27T22:52:48.583Z,27.60
2018-07-27T22:55:27.399Z,28.11
2018-07-27T22:58:08.012Z,28.65
2018-07-27T23:00:40.739Z,28.26
2018-07-27T23:03:17.638Z,28.41
2018-07-27T23:06:02.962Z,28.93
2018-07-27T23:08:40.596Z,28.85
2018-07-27T23:11:14.447Z,29.25
2018-07-27T23:13:52.513Z,29.43
2018-07-27T23:16:27.106Z,29.77
2018-07-27T23:19:01.786Z,29.41
2018-07-27T23:21:36.293Z,28.98
2018-07-27T23:24:12.449Z,29.36
2018-07-27T23:26:44.472Z,29.01
2018-07-27T23:29:19.400Z,29.50
2018-07-27T23:31:57.833Z,29.32
2018-07-27T23:34:31.648Z,29.92
2018-07-27T23:43:08.443Z,30.13
2018-07-27T23:45:45.496Z,30.30
2018-07-27T23:48:22.172Z,30.49
2018-07-27T23:50:58.645Z,30.27
2018-07-27T23:53:35.626Z,29.72
2018-07-27T23:56:07.705Z,30.65
2018-07-27T23:58:40.651Z,30.09
